createdAt,value
2022-11-04T00:01:47.091Z,11.67
2022-11-04T00:04:16.982Z,11.65
2022-11-04T00:06:44.365Z,11.62
2022-11-04T00:09:15.990Z,11.61
2022-11-04T00:12:01.589Z,11.57
2022-11-04T00:14:30.303Z,11.51
2022-11-04T00:17:16.635Z,11.45
2022-11-04T00:20:02.353Z,11.38
2022-11-04T00:22:47.959Z,11.28
2022-11-04T00:25:33.427Z,11.18
2022-11-04T00:28:36.658Z,11.12
2022-11-04T00:31:27.369Z,11.08
2022-11-04T00:33:57.747Z,11.02
2022-11-04T00:36:26.176Z,10.96
2022-11-04T00:38:53.747Z,10.93
2022-11-04T00:41:27.646Z,10.91
2022-11-04T00:44:05.379Z,10.90
2022-11-04T00:46:34.460Z,10.87
2022-11-04T00:49:01.756Z,10.88
2022-11-04T00:51:29.054Z,10.89
2022-11-04T00:53:58.297Z,10.91
2022-11-04T00:56:25.403Z,10.95
2022-11-04T00:58:52.443Z,11.02
2022-11-04T01:01:20.494Z,11.06
2022-11-04T01:03:53.078Z,11.08
2022-11-04T01:06:23.004Z,11.12
2022-11-04T01:08:55.059Z,11.11
2022-11-04T01:11:22.117Z,11.08
2022-11-04T01:13:52.602Z,11.04
2022-11-04T01:16:20.549Z,10.97
2022-11-04T01:18:47.961Z,10.92
2022-11-04T01:21:16.603Z,10.87
2022-11-04T01:23:45.083Z,10.83
2022-11-04T01:26:19.774Z,10.79
2022-11-04T01:28:46.849Z,10.75
2022-11-04T01:31:18.464Z,10.75
2022-11-04T01:33:45.625Z,10.73
2022-11-04T01:36:13.080Z,10.71
2022-11-04T01:38:40.697Z,10.68
2022-11-04T01:41:09.298Z,10.63
2022-11-04T01:44:24.469Z,10.59
2022-11-04T01:46:54.029Z,10.54
2022-11-04T01:49:40.660Z,10.51
2022-11-04T01:52:18.195Z,10.46
2022-11-04T01:54:48.499Z,10.41
2022-11-04T01:57:34.603Z,10.36
2022-11-04T02:00:07.412Z,10.33
2022-11-04T02:02:40.911Z,10.30
2022-11-04T02:05:08.310Z,10.29
2022-11-04T02:07:36.163Z,10.24
2022-11-04T02:10:03.723Z,10.18
2022-11-04T02:12:49.501Z,10.13
2022-11-04T02:15:37.310Z,10.11
2022-11-04T02:18:57.711Z,10.06
2022-11-04T02:21:57.506Z,10.03
2022-11-04T02:25:19.710Z,10.02
2022-11-04T02:28:14.061Z,9.99
2022-11-04T02:31:13.917Z,9.93
2022-11-04T02:33:52.928Z,9.90
2022-11-04T02:36:27.967Z,9.90
2022-11-04T02:39:41.077Z,9.86
2022-11-04T02:42:25.042Z,9.83
2022-11-04T02:45:24.818Z,9.80
2022-11-04T02:48:27.482Z,9.77
2022-11-04T02:51:13.213Z,9.72
2022-11-04T02:53:53.716Z,9.71
2022-11-04T02:56:23.564Z,9.67
2022-11-04T02:59:01.053Z,9.63
2022-11-04T03:01:34.756Z,9.62
2022-11-04T03:04:22.747Z,9.58
2022-11-04T03:06:54.099Z,9.56
2022-11-04T03:09:23.022Z,9.53
2022-11-04T03:11:58.473Z,9.53
2022-11-04T03:14:39.299Z,9.51
2022-11-04T03:17:18.327Z,9.48
2022-11-04T03:19:57.386Z,9.44
2022-11-04T03:22:33.222Z,9.48
2022-11-04T03:25:02.321Z,9.49
2022-11-04T03:27:44.217Z,9.50
2022-11-04T03:30:20.849Z,9.46
2022-11-04T03:33:43.678Z,9.45
2022-11-04T03:36:10.799Z,9.44
2022-11-04T03:38:38.644Z,9.41
2022-11-04T03:41:15.674Z,9.40
2022-11-04T03:43:43.097Z,9.42
2022-11-04T03:46:10.854Z,9.40
2022-11-04T03:48:38.201Z,9.39
2022-11-04T03:51:05.251Z,9.38
2022-11-04T03:53:32.907Z,9.36
2022-11-04T03:56:14.845Z,9.34
2022-11-04T03:58:52.700Z,9.33
2022-11-04T04:01:54.382Z,9.31
2022-11-04T04:05:05.854Z,9.29
2022-11-04T04:07:59.028Z,9.29
2022-11-04T04:11:19.173Z,9.27
2022-11-04T04:14:09.487Z,9.26
2022-11-04T04:16:47.361Z,9.24
2022-11-04T04:19:21.304Z,9.23
2022-11-04T04:22:22.365Z,9.21
2022-11-04T04:25:11.268Z,9.18
2022-11-04T04:27:39.697Z,9.17
2022-11-04T04:30:13.540Z,9.15
2022-11-04T04:33:01.356Z,9.14
2022-11-04T04:35:42.750Z,9.12
2022-11-04T04:38:47.807Z,9.11
2022-11-04T04:41:47.225Z,9.06
2022-11-04T04:44:53.267Z,9.05
2022-11-04T04:47:24.722Z,9.02
2022-11-04T04:50:00.945Z,8.99
2022-11-04T04:52:38.778Z,9.00
2022-11-04T04:55:07.181Z,8.99
2022-11-04T04:57:34.171Z,8.96
2022-11-04T05:00:01.138Z,8.94
2022-11-04T05:02:28.124Z,8.93
2022-11-04T05:04:56.297Z,8.94
2022-11-04T05:07:23.533Z,8.93
2022-11-04T05:09:50.494Z,8.94
2022-11-04T05:12:18.332Z,8.97
2022-11-04T05:14:45.541Z,9.00
2022-11-04T05:17:12.561Z,9.05
2022-11-04T05:19:40.014Z,9.07
2022-11-04T05:22:07.063Z,9.11
2022-11-04T05:24:33.990Z,9.14
2022-11-04T05:27:01.018Z,9.20
2022-11-04T05:29:28.221Z,9.25
2022-11-04T05:31:55.197Z,9.29
2022-11-04T05:34:22.154Z,9.34
2022-11-04T05:36:49.212Z,9.38
2022-11-04T05:39:16.194Z,9.43
2022-11-04T05:41:43.174Z,9.46
2022-11-04T05:44:11.657Z,9.47
2022-11-04T05:46:38.684Z,9.45
2022-11-04T05:49:06.071Z,9.41
2022-11-04T05:51:33.534Z,9.34
2022-11-04T05:54:01.739Z,9.28
2022-11-04T05:56:29.086Z,9.24
2022-11-04T05:58:56.050Z,9.19
2022-11-04T06:01:29.513Z,9.18
2022-11-04T06:03:58.434Z,9.18
2022-11-04T06:06:28.124Z,9.16
2022-11-04T06:08:55.792Z,9.15
2022-11-04T06:11:24.343Z,9.13
2022-11-04T06:13:51.740Z,9.13
2022-11-04T06:16:18.959Z,9.10
2022-11-04T06:18:45.915Z,9.09
2022-11-04T06:21:15.985Z,9.06
2022-11-04T06:23:48.140Z,9.05
2022-11-04T06:26:18.270Z,9.02
2022-11-04T06:28:46.447Z,9.00
2022-11-04T06:31:14.973Z,8.99
2022-11-04T06:33:42.488Z,8.99
2022-11-04T06:36:13.961Z,8.98
2022-11-04T06:38:41.686Z,9.00
2022-11-04T06:41:15.517Z,9.01
2022-11-04T06:43:42.787Z,9.03
2022-11-04T06:46:43.686Z,9.08
2022-11-04T06:49:14.927Z,9.13
2022-11-04T06:51:42.263Z,9.17
2022-11-04T06:54:09.434Z,9.23
2022-11-04T06:56:36.821Z,9.29
2022-11-04T06:59:04.227Z,9.35
2022-11-04T07:01:36.678Z,9.42
2022-11-04T07:04:07.666Z,9.48
2022-11-04T07:06:36.289Z,9.55
2022-11-04T07:09:05.463Z,9.62
2022-11-04T07:11:33.846Z,9.69
2022-11-04T07:14:00.827Z,9.77
2022-11-04T07:16:27.827Z,9.83
2022-11-04T07:18:55.862Z,9.91
2022-11-04T07:21:23.675Z,9.97
2022-11-04T07:23:50.943Z,10.00
2022-11-04T07:26:17.937Z,10.02
2022-11-04T07:28:44.937Z,10.02
2022-11-04T07:31:13.581Z,10.05
2022-11-04T07:33:41.047Z,10.09
2022-11-04T07:36:13.121Z,10.14
2022-11-04T07:38:40.124Z,10.16
2022-11-04T07:41:07.480Z,10.22
2022-11-04T07:43:34.812Z,10.27
2022-11-04T07:46:14.643Z,10.33
2022-11-04T07:48:41.736Z,10.37
2022-11-04T07:51:13.724Z,10.45
2022-11-04T07:53:40.898Z,10.53
2022-11-04T07:56:13.185Z,10.62
2022-11-04T07:58:41.293Z,10.70
2022-11-04T08:01:16.648Z,10.81
2022-11-04T08:03:43.834Z,10.89
2022-11-04T08:06:14.654Z,10.96
2022-11-04T08:08:43.560Z,11.00
2022-11-04T08:11:17.958Z,11.04
2022-11-04T08:13:46.602Z,11.05
2022-11-04T08:16:18.650Z,11.04
2022-11-04T08:18:47.007Z,10.96
2022-11-04T08:21:14.348Z,10.94
2022-11-04T08:23:41.361Z,10.97
2022-11-04T08:26:16.457Z,11.07
2022-11-04T08:28:43.597Z,11.17
2022-11-04T08:31:27.732Z,11.32
2022-11-04T08:33:56.168Z,11.45
2022-11-04T08:36:33.046Z,11.60
2022-11-04T08:39:04.464Z,11.68
2022-11-04T08:41:35.273Z,11.71
2022-11-04T08:44:04.269Z,11.73
2022-11-04T08:46:36.183Z,11.73
2022-11-04T08:49:09.496Z,11.74
2022-11-04T08:51:42.033Z,11.75
2022-11-04T08:54:09.731Z,11.74
2022-11-04T08:56:39.255Z,11.72
2022-11-04T08:59:08.516Z,11.73
2022-11-04T09:01:37.519Z,11.84
2022-11-04T09:04:06.054Z,12.15
2022-11-04T09:06:37.635Z,12.51
2022-11-04T09:09:07.460Z,12.84
2022-11-04T09:11:39.577Z,13.11
2022-11-04T09:14:07.420Z,13.33
2022-11-04T09:16:37.142Z,13.58
2022-11-04T09:19:04.531Z,13.75
2022-11-04T09:21:31.682Z,13.72
2022-11-04T09:23:58.647Z,13.61
2022-11-04T09:26:25.954Z,13.49
2022-11-04T09:28:58.028Z,13.36
2022-11-04T09:31:27.501Z,13.23
2022-11-04T09:33:55.874Z,13.13
2022-11-04T09:36:23.620Z,13.14
2022-11-04T09:38:50.667Z,13.18
2022-11-04T09:41:20.577Z,13.21
2022-11-04T09:44:05.605Z,13.31
2022-11-04T09:46:34.078Z,13.34
2022-11-04T09:49:05.835Z,13.42
2022-11-04T09:51:53.269Z,13.50
2022-11-04T09:54:29.497Z,13.65
2022-11-04T09:56:59.485Z,13.75
2022-11-04T09:59:45.795Z,13.84
2022-11-04T10:02:50.290Z,13.92
2022-11-04T10:05:49.044Z,13.99
2022-11-04T10:08:56.796Z,14.15
2022-11-04T10:12:00.633Z,14.33
2022-11-04T10:14:53.488Z,14.46
2022-11-04T10:17:47.569Z,14.50
2022-11-04T10:20:44.064Z,14.43
2022-11-04T10:23:46.287Z,14.36
2022-11-04T10:26:24.404Z,14.32
2022-11-04T10:29:05.564Z,14.34
2022-11-04T10:31:37.276Z,14.40
2022-11-04T10:34:21.335Z,14.45
2022-11-04T10:36:49.720Z,14.48
2022-11-04T10:39:35.379Z,14.48
2022-11-04T10:42:04.046Z,14.46
2022-11-04T10:44:35.517Z,14.46
2022-11-04T10:47:05.269Z,14.50
2022-11-04T10:50:00.235Z,14.59
2022-11-04T10:52:35.402Z,14.75
2022-11-04T10:55:02.399Z,14.89
2022-11-04T10:57:30.908Z,15.11
2022-11-04T11:00:05.448Z,15.21
2022-11-04T11:02:41.362Z,15.21
2022-11-04T11:05:18.845Z,15.12
2022-11-04T11:07:49.541Z,14.95
2022-11-04T11:10:36.878Z,14.77
2022-11-04T11:13:08.048Z,14.58
2022-11-04T11:15:38.452Z,14.41
2022-11-04T11:18:08.440Z,14.28
2022-11-04T11:20:37.898Z,14.22
2022-11-04T11:23:09.876Z,14.18
2022-11-04T11:25:45.613Z,14.07
2022-11-04T11:28:24.945Z,14.07
2022-11-04T11:30:52.325Z,14.12
2022-11-04T11:33:29.529Z,14.14
2022-11-04T11:36:26.935Z,14.13
2022-11-04T11:38:56.586Z,14.19
2022-11-04T11:41:31.305Z,14.15
2022-11-04T11:44:50.586Z,14.45
2022-11-04T11:47:22.841Z,14.73
2022-11-04T11:50:18.014Z,15.11
2022-11-04T11:52:48.003Z,15.34
2022-11-04T11:55:36.903Z,15.36
2022-11-04T12:01:39.285Z,15.14
2022-11-04T12:10:59.839Z,14.49
2022-11-04T12:13:53.218Z,14.34
2022-11-04T12:16:57.334Z,14.30
2022-11-04T12:19:32.932Z,14.30
2022-11-04T12:22:10.233Z,14.27
2022-11-04T12:25:08.299Z,14.40
2022-11-04T12:28:22.419Z,14.54
2022-11-04T12:31:16.935Z,14.67
2022-11-04T12:34:06.321Z,14.79
2022-11-04T12:37:11.632Z,14.87
2022-11-04T12:39:56.749Z,14.92
2022-11-04T12:43:06.718Z,15.04
2022-11-04T12:46:01.405Z,15.15
2022-11-04T12:48:57.406Z,15.13
2022-11-04T12:51:52.589Z,15.10
2022-11-04T12:54:29.797Z,14.94
2022-11-04T12:57:32.996Z,14.84
2022-11-04T13:00:24.845Z,14.84
2022-11-04T13:03:12.717Z,14.90
2022-11-04T13:06:14.137Z,14.91
2022-11-04T13:09:15.000Z,14.86
2022-11-04T13:12:19.812Z,14.79
2022-11-04T13:15:13.463Z,14.71
2022-11-04T13:17:43.641Z,14.59
2022-11-04T13:20:31.484Z,14.55
2022-11-04T13:23:04.179Z,14.56
2022-11-04T13:25:44.752Z,14.55
2022-11-04T13:28:15.260Z,14.53
2022-11-04T13:31:30.933Z,14.56
2022-11-04T13:34:03.449Z,14.63
2022-11-04T13:36:59.364Z,14.72
2022-11-04T13:39:39.243Z,14.80
2022-11-04T13:42:30.165Z,14.85
2022-11-04T13:45:04.486Z,14.89
2022-11-04T13:47:38.183Z,14.90
2022-11-04T13:50:06.977Z,14.86
2022-11-04T13:52:52.358Z,14.85
2022-11-04T13:55:24.209Z,14.85
2022-11-04T13:57:54.493Z,14.86
2022-11-04T14:00:27.678Z,14.85
2022-11-04T14:03:00.279Z,14.86
2022-11-04T14:05:31.236Z,14.86
2022-11-04T14:08:01.259Z,14.85
2022-11-04T14:10:50.112Z,14.84
2022-11-04T14:13:35.219Z,14.84
2022-11-04T14:16:02.962Z,14.92
2022-11-04T14:18:42.540Z,15.04
2022-11-04T14:21:25.966Z,15.10
2022-11-04T14:24:00.351Z,15.00
2022-11-04T14:26:42.187Z,14.90
2022-11-04T14:29:20.536Z,14.81
2022-11-04T14:31:52.519Z,14.74
2022-11-04T14:34:37.685Z,14.67
2022-11-04T14:37:28.969Z,14.57
2022-11-04T14:40:00.160Z,14.48
2022-11-04T14:42:50.950Z,14.40
2022-11-04T14:45:34.986Z,14.32
2022-11-04T14:48:18.425Z,14.22
2022-11-04T14:50:52.392Z,14.18
2022-11-04T14:53:33.187Z,14.18
2022-11-04T14:56:24.147Z,14.16
2022-11-04T14:59:03.517Z,14.09
2022-11-04T15:01:35.638Z,14.02
2022-11-04T15:04:15.071Z,13.94
2022-11-04T15:06:57.689Z,13.90
2022-11-04T15:09:31.902Z,13.84
2022-11-04T15:12:30.342Z,13.83
2022-11-04T15:14:59.481Z,13.80
2022-11-04T15:17:31.931Z,13.77
2022-11-04T15:20:02.130Z,13.74
2022-11-04T15:22:30.514Z,13.71
2022-11-04T15:25:05.915Z,13.72
2022-11-04T15:27:34.635Z,13.71
2022-11-04T15:30:04.489Z,13.70
2022-11-04T15:32:32.202Z,13.66
2022-11-04T15:34:59.827Z,13.62
2022-11-04T15:37:29.144Z,13.58
2022-11-04T15:39:58.365Z,13.51
2022-11-04T15:42:45.575Z,13.41
2022-11-04T15:45:46.563Z,13.29
2022-11-04T15:48:29.038Z,13.18
2022-11-04T15:51:23.608Z,13.13
2022-11-04T15:53:50.570Z,13.07
2022-11-04T15:56:26.013Z,13.04
2022-11-04T15:58:54.682Z,12.98
2022-11-04T16:01:22.596Z,12.95
2022-11-04T16:04:01.072Z,12.90
2022-11-04T16:06:39.659Z,12.84
2022-11-04T16:09:21.474Z,12.78
2022-11-04T16:12:08.777Z,12.71
2022-11-04T16:14:35.846Z,12.65
2022-11-04T16:17:03.373Z,12.59
2022-11-04T16:19:32.287Z,12.55
2022-11-04T16:22:07.273Z,12.48
2022-11-04T16:24:38.939Z,12.42
2022-11-04T16:27:11.371Z,12.37
2022-11-04T16:29:42.633Z,12.28
2022-11-04T16:32:18.333Z,12.24
2022-11-04T16:34:48.878Z,12.20
2022-11-04T16:37:15.835Z,12.16
2022-11-04T16:39:45.389Z,12.13
2022-11-04T16:42:14.695Z,12.07
2022-11-04T16:44:48.519Z,12.10
2022-11-04T16:47:15.637Z,12.07
2022-11-04T16:49:42.635Z,12.05
2022-11-04T16:52:16.080Z,12.05
2022-11-04T16:54:43.042Z,12.04
2022-11-04T16:57:13.782Z,12.04
2022-11-04T16:59:41.530Z,12.03
2022-11-04T17:02:31.759Z,12.03
2022-11-04T17:04:59.134Z,12.03
2022-11-04T17:07:40.721Z,12.04
2022-11-04T17:10:22.145Z,12.03
2022-11-04T17:12:49.779Z,12.04
2022-11-04T17:15:17.616Z,12.04
2022-11-04T17:17:45.099Z,12.04
2022-11-04T17:20:17.651Z,12.05
2022-11-04T17:22:47.062Z,12.07
2022-11-04T17:25:21.489Z,12.06
2022-11-04T17:27:49.075Z,12.05
2022-11-04T17:30:17.478Z,12.06
2022-11-04T17:32:45.588Z,12.06
2022-11-04T17:35:13.163Z,12.07
2022-11-04T17:37:40.768Z,12.07
2022-11-04T17:40:09.545Z,12.07
2022-11-04T17:42:55.136Z,12.06
2022-11-04T17:45:22.137Z,12.06
2022-11-04T17:47:49.203Z,12.06
2022-11-04T17:50:16.271Z,12.08
2022-11-04T17:52:44.139Z,12.09
2022-11-04T17:55:16.722Z,12.07
2022-11-04T17:57:45.008Z,12.10
2022-11-04T18:00:14.274Z,12.09
2022-11-04T18:02:42.851Z,12.09
2022-11-04T18:05:10.127Z,12.06
2022-11-04T18:07:37.282Z,12.04
2022-11-04T18:10:05.390Z,12.02
2022-11-04T18:12:38.507Z,12.00
2022-11-04T18:15:11.507Z,11.97
2022-11-04T18:17:43.914Z,11.94
2022-11-04T18:20:15.397Z,11.93
2022-11-04T18:22:46.968Z,11.89
2022-11-04T18:25:14.160Z,11.87
2022-11-04T18:27:41.360Z,11.82
2022-11-04T18:30:10.042Z,11.79
2022-11-04T18:32:37.070Z,11.72
2022-11-04T18:35:04.476Z,11.67
2022-11-04T18:37:31.827Z,11.63
2022-11-04T18:39:58.829Z,11.58
2022-11-04T18:42:25.938Z,11.54
2022-11-04T18:44:52.911Z,11.50
2022-11-04T18:47:20.300Z,11.45
2022-11-04T18:49:48.008Z,11.42
2022-11-04T18:52:15.054Z,11.39
2022-11-04T18:54:45.712Z,11.36
2022-11-04T18:57:12.870Z,11.32
2022-11-04T18:59:40.117Z,11.28
2022-11-04T19:02:08.476Z,11.23
2022-11-04T19:04:35.578Z,11.19
2022-11-04T19:07:04.392Z,11.14
2022-11-04T19:09:46.005Z,11.09
2022-11-04T19:12:32.573Z,11.03
2022-11-04T19:14:59.581Z,10.95
2022-11-04T19:17:26.568Z,10.89
2022-11-04T19:19:53.634Z,10.84
2022-11-04T19:22:20.612Z,10.75
2022-11-04T19:24:47.642Z,10.70
2022-11-04T19:27:14.783Z,10.67
2022-11-04T19:29:41.761Z,10.61
2022-11-04T19:32:13.741Z,10.59
2022-11-04T19:34:41.798Z,10.54
2022-11-04T19:37:09.186Z,10.47
2022-11-04T19:39:36.530Z,10.42
2022-11-04T19:42:23.071Z,10.33
2022-11-04T19:44:50.126Z,10.27
2022-11-04T19:47:17.289Z,10.21
2022-11-04T19:49:44.415Z,10.22
2022-11-04T19:52:11.937Z,10.17
2022-11-04T19:54:39.315Z,10.11
2022-11-04T19:57:10.395Z,10.04
2022-11-04T19:59:40.505Z,9.97
2022-11-04T20:02:07.605Z,9.94
2022-11-04T20:04:34.771Z,9.88
2022-11-04T20:07:01.921Z,9.82
2022-11-04T20:09:28.901Z,9.78
2022-11-04T20:12:14.580Z,9.72
2022-11-04T20:14:41.533Z,9.66
2022-11-04T20:17:08.474Z,9.59
2022-11-04T20:19:35.466Z,9.55
2022-11-04T20:22:03.432Z,9.49
2022-11-04T20:24:30.647Z,9.44
2022-11-04T20:26:57.884Z,9.39
2022-11-04T20:29:24.887Z,9.37
2022-11-04T20:31:51.874Z,9.31
2022-11-04T20:34:18.854Z,9.29
2022-11-04T20:36:45.829Z,9.27
2022-11-04T20:39:15.949Z,9.24
2022-11-04T20:41:44.412Z,9.22
2022-11-04T20:44:13.099Z,9.18
2022-11-04T20:46:41.058Z,9.17
2022-11-04T20:49:08.573Z,9.15
2022-11-04T20:51:48.822Z,9.12
2022-11-04T20:54:19.428Z,9.10
2022-11-04T20:56:46.909Z,9.08
2022-11-04T20:59:14.402Z,9.06
2022-11-04T21:01:44.694Z,9.02
2022-11-04T21:04:18.268Z,9.01
2022-11-04T21:06:50.253Z,8.99
2022-11-04T21:09:20.145Z,8.97
2022-11-04T21:11:47.585Z,8.94
2022-11-04T21:14:17.060Z,8.91
2022-11-04T21:16:44.206Z,8.89
2022-11-04T21:19:12.183Z,8.86
2022-11-04T21:21:42.527Z,8.84
2022-11-04T21:24:12.805Z,8.84
2022-11-04T21:26:40.249Z,8.84
2022-11-04T21:29:12.506Z,8.83
2022-11-04T21:31:39.762Z,8.82
2022-11-04T21:34:06.919Z,8.80
2022-11-04T21:36:34.171Z,8.74
2022-11-04T21:39:01.465Z,8.72
2022-11-04T21:41:33.866Z,8.68
2022-11-04T21:44:03.039Z,8.64
2022-11-04T21:46:32.898Z,8.65
2022-11-04T21:49:01.096Z,8.66
2022-11-04T21:51:31.387Z,8.72
2022-11-04T21:53:59.861Z,8.74
2022-11-04T21:56:34.052Z,8.75
2022-11-04T21:59:01.745Z,8.75
2022-11-04T22:01:30.698Z,8.75
2022-11-04T22:04:01.045Z,8.76
2022-11-04T22:06:33.996Z,8.78
2022-11-04T22:09:01.965Z,8.81
2022-11-04T22:11:31.470Z,8.81
2022-11-04T22:14:01.754Z,8.82
2022-11-04T22:16:32.322Z,8.83
2022-11-04T22:19:02.436Z,8.87
2022-11-04T22:21:31.503Z,8.92
2022-11-04T22:23:59.272Z,8.98
2022-11-04T22:26:32.527Z,9.07
2022-11-04T22:29:00.286Z,9.14
2022-11-04T22:31:31.130Z,9.22
2022-11-04T22:33:59.780Z,9.29
2022-11-04T22:36:28.355Z,9.36
2022-11-04T22:38:56.262Z,9.42
2022-11-04T22:41:31.434Z,9.49
2022-11-04T22:43:59.471Z,9.53
2022-11-04T22:46:30.278Z,9.55
2022-11-04T22:48:59.573Z,9.56
2022-11-04T22:51:26.733Z,9.58
2022-11-04T22:54:00.006Z,9.61
2022-11-04T22:56:28.600Z,9.62
2022-11-04T22:58:56.074Z,9.63
2022-11-04T23:01:23.579Z,9.64
2022-11-04T23:03:52.106Z,9.65
2022-11-04T23:06:19.363Z,9.63
2022-11-04T23:08:46.451Z,9.62
2022-11-04T23:11:39.780Z,9.61
2022-11-04T23:14:45.172Z,9.59
2022-11-04T23:17:41.494Z,9.59
2022-11-04T23:20:14.578Z,9.58
2022-11-04T23:23:01.042Z,9.57
2022-11-04T23:25:28.369Z,9.55
2022-11-04T23:28:14.580Z,9.55
2022-11-04T23:30:50.804Z,9.53
2022-11-04T23:33:17.870Z,9.51
2022-11-04T23:36:07.019Z,9.48
2022-11-04T23:38:35.479Z,9.44
2022-11-04T23:41:25.166Z,9.41
2022-11-04T23:43:52.463Z,9.36
2022-11-04T23:46:43.091Z,9.29
2022-11-04T23:49:31.792Z,9.21
2022-11-04T23:52:17.733Z,9.12
2022-11-04T23:55:03.292Z,9.05
2022-11-04T23:57:49.047Z,8.97
